Time;durP1;ratioP1;P1;durP2;ratioP2;P2;SDS_P1;SDS_P2;PMS_P1;PMS_P2;Temp;Humidity;BMP_temperature;BMP_pressure;BME280_temperature;BME280_humidity;BME280_pressure;Samples;Min_cycle;Max_cycle;Signal;HPM_P1;HPM_P2
2022/05/14 00:00:19;;;;;;;;;;;;;;;;;;4990282;28;19918;-60
2022/05/14 00:02:45;;;;;;;;;;;;;;;;;;4992321;28;20032;-59
2022/05/14 00:05:10;;;;;;;;;;;;;;;;;;4995552;28;19921;-60
2022/05/14 00:07:36;;;;;;;;;;;;;;;;;;4993985;28;19921;-59
2022/05/14 00:10:01;;;;;;;;;;;;;;;;;;4995813;28;19917;-60
2022/05/14 00:15:10;;;;;;;;;;;;;;;;;;4992233;28;19917;-61
2022/05/14 00:17:35;;;;;;;;;;;;;;;;;;4998862;28;20567;-60
2022/05/14 00:20:00;;;;;;;;;;;;;;;;;;4995722;28;20723;-60
2022/05/14 00:22:26;;;;;;;;;;;;;;;;;;5011388;28;19964;-58
2022/05/14 00:24:51;;;;;;;;;;;;;;;;;;4998298;28;20063;-59
2022/05/14 00:27:16;;;;;;;;;;;;;;;;;;4992768;28;20404;-59
2022/05/14 00:29:41;;;;;;;;;;;;;;;;;;5009911;28;20402;-60
2022/05/14 00:32:06;;;;;;;;;;;;;;;;;;4993348;28;19952;-59
2022/05/14 00:34:32;;;;;;;;;;;;;;;;;;4998932;28;20435;-58
2022/05/14 00:37:00;;;;;;;;;;;;;;;;;;4995448;28;19985;-59
2022/05/14 00:39:25;;;;;;;;;;;;;;;;;;4997453;28;19963;-60
2022/05/14 00:41:50;;;;;;;;;;;;;;;;;;4998298;28;20449;-59
2022/05/14 00:44:16;;;;;;;;;;;;;;;;;;5013366;28;20325;-59
2022/05/14 00:46:41;;;;;;;;;;;;;;;;;;5000859;28;20398;-59
2022/05/14 00:49:07;;;;;;;;;;;;;;;;;;4994068;28;19923;-58
2022/05/14 00:51:32;;;;;;;;;;;;;;;;;;5011546;28;20682;-59
2022/05/14 00:53:57;;;;;;;;;;;;;;;;;;5009492;28;19921;-60
2022/05/14 00:56:23;;;;;;;;;;;;;;;;;;4998270;28;20016;-58
2022/05/14 00:58:48;;;;;;;;;;;;;;;;;;5001005;28;19925;-60
2022/05/14 01:01:13;;;;;;;;;;;;;;;;;;4998389;28;20428;-59
2022/05/14 01:03:39;;;;;;;;;;;;;;;;;;4995228;28;19918;-59
2022/05/14 01:06:04;;;;;;;;;;;;;;;;;;4998003;28;19940;-60
2022/05/14 01:08:30;;;;;;;;;;;;;;;;;;4999378;28;19921;-60
2022/05/14 01:10:55;;;;;;;;;;;;;;;;;;5012573;28;19932;-59
2022/05/14 01:13:20;;;;;;;;;;;;;;;;;;4979623;28;19913;-59
2022/05/14 01:15:45;;;;;;;;;;;;;;;;;;5009717;28;19917;-59
2022/05/14 01:18:11;;;;;;;;;;;;;;;;;;5006407;28;19924;-59
2022/05/14 01:20:37;;;;;;;;;;;;;;;;;;4997578;28;20373;-59
2022/05/14 01:23:03;;;;;;;;;;;;;;;;;;5011549;28;19944;-60
2022/05/14 01:28:12;;;;;;;;;;;;;;;;;;5008980;28;19929;-59
2022/05/14 01:30:37;;;;;;;;;;;;;;;;;;4993671;28;19917;-59
2022/05/14 01:33:06;;;;;;;;;;;;;;;;;;4996572;28;19925;-60
2022/05/14 01:35:36;;;;;;;;;;;;;;;;;;4997792;28;19918;-59
2022/05/14 01:38:01;;;;;;;;;;;;;;;;;;5002561;28;19970;-59
2022/05/14 01:40:27;;;;;;;;;;;;;;;;;;5004302;28;19924;-59
2022/05/14 01:42:52;;;;;;;;;;;;;;;;;;5003242;28;19983;-59
2022/05/14 01:45:17;;;;;;;;;;;;;;;;;;5007895;28;19925;-59
2022/05/14 01:47:42;;;;;;;;;;;;;;;;;;5007268;28;20298;-59
2022/05/14 01:50:08;;;;;;;;;;;;;;;;;;4993821;28;19957;-58
2022/05/14 01:52:33;;;;;;;;;;;;;;;;;;4993222;28;20386;-59
2022/05/14 01:54:58;;;;;;;;;;;;;;;;;;5005963;28;19917;-59
2022/05/14 01:57:23;;;;;;;;;;;;;;;;;;4996208;28;19937;-59
2022/05/14 01:59:49;;;;;;;;;;;;;;;;;;4998632;28;19917;-60
2022/05/14 02:02:14;;;;;;;;;;;;;;;;;;4998555;28;19918;-59
2022/05/14 02:04:39;;;;;;;;;;;;;;;;;;5010716;28;19985;-58
2022/05/14 02:07:05;;;;;;;;;;;;;;;;;;5009084;28;20017;-58
2022/05/14 02:09:30;;;;;;;;;;;;;;;;;;5011769;28;19930;-59
2022/05/14 02:11:56;;;;;;;;;;;;;;;;;;5006488;28;20021;-60
2022/05/14 02:14:30;;;;;;;;;;;;;;;;;;4994672;28;19925;-58
2022/05/14 02:16:55;;;;;;;;;;;;;;;;;;5007292;28;19922;-59
2022/05/14 02:19:20;;;;;;;;;;;;;;;;;;4997915;28;20021;-58
2022/05/14 02:21:45;;;;;;;;;;;;;;;;;;4994300;28;19917;-60
2022/05/14 02:24:11;;;;;;;;;;;;;;;;;;5000259;28;19917;-63
2022/05/14 02:26:37;;;;;;;;;;;;;;;;;;5013030;28;19935;-60
2022/05/14 02:29:03;;;;;;;;;;;;;;;;;;5005703;28;20024;-58
2022/05/14 02:31:28;;;;;;;;;;;;;;;;;;4997076;28;19929;-58
2022/05/14 02:33:53;;;;;;;;;;;;;;;;;;4998075;28;20429;-59
2022/05/14 02:36:19;;;;;;;;;;;;;;;;;;5003527;28;19918;-58
2022/05/14 02:38:44;;;;;;;;;;;;;;;;;;5008857;28;20032;-62
2022/05/14 02:41:09;;;;;;;;;;;;;;;;;;4997343;28;20012;-59
2022/05/14 02:43:35;;;;;;;;;;;;;;;;;;4996898;28;19928;-59
2022/05/14 02:46:00;;;;;;;;;;;;;;;;;;5010221;28;19926;-58
2022/05/14 02:48:26;;;;;;;;;;;;;;;;;;5006663;28;19922;-60
2022/05/14 02:50:51;;;;;;;;;;;;;;;;;;4999363;28;19925;-59
2022/05/14 02:53:17;;;;;;;;;;;;;;;;;;5010458;28;19917;-58
2022/05/14 02:55:42;;;;;;;;;;;;;;;;;;5010161;28;19922;-60
2022/05/14 02:58:07;;;;;;;;;;;;;;;;;;4989205;28;20290;-59
2022/05/14 03:00:33;;;;;;;;;;;;;;;;;;5011723;28;20342;-58
2022/05/14 03:02:58;;;;;;;;;;;;;;;;;;5012828;28;19925;-58
2022/05/14 03:05:23;;;;;;;;;;;;;;;;;;5011606;28;19926;-59
2022/05/14 03:07:48;;;;;;;;;;;;;;;;;;4996373;28;19922;-60
2022/05/14 03:10:14;;;;;;;;;;;;;;;;;;5012814;28;19922;-59
2022/05/14 03:12:39;;;;;;;;;;;;;;;;;;4997536;28;19917;-59
2022/05/14 03:15:05;;;;;;;;;;;;;;;;;;5011033;28;19921;-59
2022/05/14 03:17:34;;;;;;;;;;;;;;;;;;5007353;28;20316;-59
2022/05/14 03:19:59;;;;;;;;;;;;;;;;;;5000151;28;19925;-59
2022/05/14 03:22:24;;;;;;;;;;;;;;;;;;4998088;28;19922;-58
2022/05/14 03:24:51;;;;;;;;;;;;;;;;;;5011393;28;19929;-59
2022/05/14 03:27:16;;;;;;;;;;;;;;;;;;5007380;28;20458;-59
2022/05/14 03:29:41;;;;;;;;;;;;;;;;;;5011966;28;19921;-59
2022/05/14 03:32:07;;;;;;;;;;;;;;;;;;4993091;28;19924;-59
2022/05/14 03:34:32;;;;;;;;;;;;;;;;;;4996601;28;19918;-59
2022/05/14 03:36:57;;;;;;;;;;;;;;;;;;4999541;28;20450;-58
2022/05/14 03:39:22;;;;;;;;;;;;;;;;;;4994344;28;19952;-59
2022/05/14 03:41:48;;;;;;;;;;;;;;;;;;5002509;28;19918;-60
2022/05/14 03:44:13;;;;;;;;;;;;;;;;;;5003366;28;20036;-60
2022/05/14 03:46:38;;;;;;;;;;;;;;;;;;5010779;28;19925;-60
2022/05/14 03:49:04;;;;;;;;;;;;;;;;;;4985171;28;19921;-59
2022/05/14 03:51:30;;;;;;;;;;;;;;;;;;5013960;28;19918;-59
2022/05/14 03:53:55;;;;;;;;;;;;;;;;;;4990180;28;20357;-59
2022/05/14 03:56:20;;;;;;;;;;;;;;;;;;5011474;28;19918;-60
2022/05/14 03:58:45;;;;;;;;;;;;;;;;;;5011247;28;19921;-59
2022/05/14 04:01:11;;;;;;;;;;;;;;;;;;4998329;28;19917;-59
2022/05/14 04:03:36;;;;;;;;;;;;;;;;;;4996328;28;19921;-60
2022/05/14 04:06:01;;;;;;;;;;;;;;;;;;5006223;28;20011;-59
2022/05/14 04:08:26;;;;;;;;;;;;;;;;;;4995657;28;19929;-60
2022/05/14 04:10:52;;;;;;;;;;;;;;;;;;5008656;28;19925;-59
2022/05/14 04:13:17;;;;;;;;;;;;;;;;;;5012177;28;19917;-59
2022/05/14 04:15:42;;;;;;;;;;;;;;;;;;4999431;28;20055;-59
2022/05/14 04:18:09;;;;;;;;;;;;;;;;;;5000916;28;19939;-58
2022/05/14 04:20:35;;;;;;;;;;;;;;;;;;5012586;28;19922;-58
2022/05/14 04:23:00;;;;;;;;;;;;;;;;;;5014185;28;19924;-59
2022/05/14 04:25:26;;;;;;;;;;;;;;;;;;5013133;28;19922;-58
2022/05/14 04:27:51;;;;;;;;;;;;;;;;;;5012412;28;19921;-59
2022/05/14 04:30:17;;;;;;;;;;;;;;;;;;4993662;28;20294;-60
2022/05/14 04:32:43;;;;;;;;;;;;;;;;;;4987055;28;19928;-59
2022/05/14 04:35:08;;;;;;;;;;;;;;;;;;4993893;28;19921;-58
2022/05/14 04:37:35;;;;;;;;;;;;;;;;;;4993917;28;19917;-59
2022/05/14 04:40:00;;;;;;;;;;;;;;;;;;5000640;28;19917;-58
2022/05/14 04:42:25;;;;;;;;;;;;;;;;;;5006178;28;20287;-60
2022/05/14 04:44:50;;;;;;;;;;;;;;;;;;5009119;28;20043;-58
2022/05/14 04:47:16;;;;;;;;;;;;;;;;;;4991571;28;19933;-59
2022/05/14 04:49:42;;;;;;;;;;;;;;;;;;4996295;28;20880;-58
2022/05/14 04:52:07;;;;;;;;;;;;;;;;;;5001040;28;19918;-60
2022/05/14 04:54:33;;;;;;;;;;;;;;;;;;5013576;28;20396;-60
2022/05/14 04:56:58;;;;;;;;;;;;;;;;;;4996976;28;20031;-58
2022/05/14 04:59:23;;;;;;;;;;;;;;;;;;4976368;28;19918;-59
2022/05/14 05:04:32;;;;;;;;;;;;;;;;;;4995262;28;19929;-60
2022/05/14 05:06:58;;;;;;;;;;;;;;;;;;5013098;28;19922;-60
2022/05/14 05:09:23;;;;;;;;;;;;;;;;;;4996152;28;20016;-59
2022/05/14 05:11:50;;;;;;;;;;;;;;;;;;4993223;28;19921;-59
2022/05/14 05:14:15;;;;;;;;;;;;;;;;;;4994572;28;19937;-59
2022/05/14 05:16:40;;;;;;;;;;;;;;;;;;5000076;28;19918;-57
2022/05/14 05:19:06;;;;;;;;;;;;;;;;;;4999427;28;20331;-58
2022/05/14 05:21:31;;;;;;;;;;;;;;;;;;4998289;28;19992;-59
2022/05/14 05:23:57;;;;;;;;;;;;;;;;;;4998058;28;20854;-59
2022/05/14 05:26:22;;;;;;;;;;;;;;;;;;4997414;28;20368;-60
2022/05/14 05:28:47;;;;;;;;;;;;;;;;;;4995471;28;20456;-59
2022/05/14 05:31:12;;;;;;;;;;;;;;;;;;4990821;28;20618;-60
2022/05/14 05:33:37;;;;;;;;;;;;;;;;;;5000832;28;20399;-59
2022/05/14 05:36:03;;;;;;;;;;;;;;;;;;4996799;28;19918;-59
2022/05/14 05:38:28;;;;;;;;;;;;;;;;;;4994460;28;19917;-59
2022/05/14 05:40:53;;;;;;;;;;;;;;;;;;4998254;28;20567;-59
2022/05/14 05:43:18;;;;;;;;;;;;;;;;;;4985798;28;20044;-60
2022/05/14 05:45:43;;;;;;;;;;;;;;;;;;4993729;28;19922;-59
2022/05/14 05:48:10;;;;;;;;;;;;;;;;;;4990951;28;19925;-59
2022/05/14 05:50:37;;;;;;;;;;;;;;;;;;4998335;28;19948;-58
2022/05/14 05:53:03;;;;;;;;;;;;;;;;;;4992768;28;20442;-59
2022/05/14 05:58:12;;;;;;;;;;;;;;;;;;4993184;28;20334;-59
2022/05/14 06:00:37;;;;;;;;;;;;;;;;;;4995999;28;20417;-59
2022/05/14 06:03:02;;;;;;;;;;;;;;;;;;4995639;28;19944;-58
2022/05/14 06:05:28;;;;;;;;;;;;;;;;;;5000961;28;19928;-58
2022/05/14 06:07:53;;;;;;;;;;;;;;;;;;4998140;28;19949;-60
2022/05/14 06:10:18;;;;;;;;;;;;;;;;;;4997209;28;19918;-58
2022/05/14 06:12:44;;;;;;;;;;;;;;;;;;5002594;28;19941;-59
2022/05/14 06:15:09;;;;;;;;;;;;;;;;;;5007575;28;19975;-58
2022/05/14 06:17:34;;;;;;;;;;;;;;;;;;5003221;28;19922;-58
2022/05/14 06:19:59;;;;;;;;;;;;;;;;;;5012814;28;19917;-59
2022/05/14 06:22:24;;;;;;;;;;;;;;;;;;4996880;28;19922;-58
2022/05/14 06:24:50;;;;;;;;;;;;;;;;;;4997695;28;20430;-59
2022/05/14 06:27:15;;;;;;;;;;;;;;;;;;4994853;28;20397;-60
2022/05/14 06:29:40;;;;;;;;;;;;;;;;;;4995436;28;20246;-59
2022/05/14 06:32:05;;;;;;;;;;;;;;;;;;4998713;28;20301;-58
2022/05/14 06:34:30;;;;;;;;;;;;;;;;;;5000075;28;19917;-58
2022/05/14 06:36:56;;;;;;;;;;;;;;;;;;4997815;28;20283;-59
2022/05/14 06:39:21;;;;;;;;;;;;;;;;;;4997234;28;19925;-59
2022/05/14 06:41:47;;;;;;;;;;;;;;;;;;4995503;28;19917;-58
2022/05/14 06:44:12;;;;;;;;;;;;;;;;;;4994762;28;20012;-60
2022/05/14 06:46:37;;;;;;;;;;;;;;;;;;4998012;28;19922;-59
2022/05/14 06:49:02;;;;;;;;;;;;;;;;;;4998845;28;19972;-59
2022/05/14 06:51:28;;;;;;;;;;;;;;;;;;4999562;28;19917;-57
2022/05/14 06:53:53;;;;;;;;;;;;;;;;;;4995986;28;19924;-57
2022/05/14 06:56:18;;;;;;;;;;;;;;;;;;4997874;28;19956;-57
2022/05/14 06:58:44;;;;;;;;;;;;;;;;;;4997656;28;19922;-58
2022/05/14 07:01:09;;;;;;;;;;;;;;;;;;4998780;28;19917;-58
2022/05/14 07:09:03;;;;;;;;;;;;;;;;;;4997581;28;20374;-58
2022/05/14 07:11:28;;;;;;;;;;;;;;;;;;4993093;28;19917;-58
2022/05/14 07:13:53;;;;;;;;;;;;;;;;;;4996251;28;19918;-58
2022/05/14 07:16:18;;;;;;;;;;;;;;;;;;4998289;28;19925;-59
2022/05/14 07:18:44;;;;;;;;;;;;;;;;;;5003897;28;20016;-59
2022/05/14 07:21:09;;;;;;;;;;;;;;;;;;5004329;28;19917;-59
2022/05/14 07:23:34;;;;;;;;;;;;;;;;;;4996694;28;19928;-59
2022/05/14 07:25:59;;;;;;;;;;;;;;;;;;4995279;28;19918;-59
2022/05/14 07:28:25;;;;;;;;;;;;;;;;;;4994825;28;20317;-59
2022/05/14 07:30:50;;;;;;;;;;;;;;;;;;4991246;28;19917;-59
2022/05/14 07:33:15;;;;;;;;;;;;;;;;;;4990844;28;19918;-60
2022/05/14 07:35:40;;;;;;;;;;;;;;;;;;4993072;28;20033;-59
2022/05/14 07:38:05;;;;;;;;;;;;;;;;;;4995323;28;19921;-59
2022/05/14 07:40:31;;;;;;;;;;;;;;;;;;4992663;28;19918;-59
2022/05/14 07:42:57;;;;;;;;;;;;;;;;;;4999037;28;19917;-59
2022/05/14 07:45:22;;;;;;;;;;;;;;;;;;4997403;28;19928;-59
2022/05/14 07:47:47;;;;;;;;;;;;;;;;;;4998505;28;19936;-60
2022/05/14 07:50:13;;;;;;;;;;;;;;;;;;4995973;28;20528;-59
2022/05/14 07:52:39;;;;;;;;;;;;;;;;;;4993570;28;20676;-61
2022/05/14 07:55:04;;;;;;;;;;;;;;;;;;4996290;28;19960;-60
2022/05/14 07:57:29;;;;;;;;;;;;;;;;;;4978743;28;19945;-61
2022/05/14 07:59:54;;;;;;;;;;;;;;;;;;4991183;28;19928;-59
2022/05/14 08:02:19;;;;;;;;;;;;;;;;;;5002810;28;19924;-61
2022/05/14 08:04:45;;;;;;;;;;;;;;;;;;4996311;28;20076;-59
2022/05/14 08:07:10;;;;;;;;;;;;;;;;;;4989210;28;19939;-60
2022/05/14 08:09:35;;;;;;;;;;;;;;;;;;4986261;28;19922;-60
2022/05/14 08:12:00;;;;;;;;;;;;;;;;;;5010164;28;19925;-60
2022/05/14 08:14:25;;;;;;;;;;;;;;;;;;4992945;28;19929;-59
2022/05/14 08:16:51;;;;;;;;;;;;;;;;;;4997926;28;20429;-60
2022/05/14 08:19:17;;;;;;;;;;;;;;;;;;5002003;28;19914;-60
2022/05/14 08:24:35;;;;;;;;;;;;;;;;;;4995404;28;19918;-60
2022/05/14 08:27:01;;;;;;;;;;;;;;;;;;4999662;28;20295;-60
2022/05/14 08:29:26;;;;;;;;;;;;;;;;;;4996644;28;20358;-60
2022/05/14 08:31:51;;;;;;;;;;;;;;;;;;5004177;28;20429;-60
2022/05/14 08:34:16;;;;;;;;;;;;;;;;;;4991709;28;19921;-61
2022/05/14 08:36:42;;;;;;;;;;;;;;;;;;4991832;28;19972;-59
2022/05/14 08:39:08;;;;;;;;;;;;;;;;;;4987543;28;20801;-59
2022/05/14 08:41:33;;;;;;;;;;;;;;;;;;4993003;28;19913;-60
2022/05/14 08:43:58;;;;;;;;;;;;;;;;;;4988046;28;20391;-60
2022/05/14 08:46:24;;;;;;;;;;;;;;;;;;4987849;28;19943;-59
2022/05/14 08:48:50;;;;;;;;;;;;;;;;;;4992472;28;20255;-60
2022/05/14 08:51:15;;;;;;;;;;;;;;;;;;4986569;28;19917;-60
2022/05/14 08:53:41;;;;;;;;;;;;;;;;;;4996360;28;19924;-59
2022/05/14 08:56:07;;;;;;;;;;;;;;;;;;4985173;28;19960;-61
2022/05/14 08:58:32;;;;;;;;;;;;;;;;;;4987386;28;19923;-61
2022/05/14 09:00:57;;;;;;;;;;;;;;;;;;4993877;28;19933;-60
2022/05/14 09:03:23;;;;;;;;;;;;;;;;;;4989400;28;19918;-60
2022/05/14 09:05:48;;;;;;;;;;;;;;;;;;4996242;28;19921;-61
2022/05/14 09:08:15;;;;;;;;;;;;;;;;;;4988971;28;20382;-61
2022/05/14 09:10:41;;;;;;;;;;;;;;;;;;4986544;28;19925;-61
2022/05/14 09:13:06;;;;;;;;;;;;;;;;;;4994468;28;19921;-61
2022/05/14 09:15:31;;;;;;;;;;;;;;;;;;4991062;28;19929;-61
2022/05/14 09:17:59;;;;;;;;;;;;;;;;;;5006344;28;19918;-61
2022/05/14 09:20:25;;;;;;;;;;;;;;;;;;4987925;28;19917;-61
2022/05/14 09:22:50;;;;;;;;;;;;;;;;;;4988921;28;20666;-61
2022/05/14 09:25:15;;;;;;;;;;;;;;;;;;4993078;28;19961;-61
2022/05/14 09:27:40;;;;;;;;;;;;;;;;;;4986747;28;19925;-61
2022/05/14 09:30:06;;;;;;;;;;;;;;;;;;4994969;28;19967;-62
2022/05/14 09:32:31;;;;;;;;;;;;;;;;;;4990817;28;20016;-61
2022/05/14 09:34:56;;;;;;;;;;;;;;;;;;4990594;28;19921;-60
2022/05/14 09:37:21;;;;;;;;;;;;;;;;;;4996975;28;19918;-62
2022/05/14 09:39:46;;;;;;;;;;;;;;;;;;4988204;28;19913;-62
2022/05/14 09:42:12;;;;;;;;;;;;;;;;;;5002108;28;19914;-62
2022/05/14 09:44:39;;;;;;;;;;;;;;;;;;4989792;28;19937;-61
2022/05/14 09:47:04;;;;;;;;;;;;;;;;;;4989982;28;19929;-62
2022/05/14 09:49:31;;;;;;;;;;;;;;;;;;4992396;28;19920;-63
2022/05/14 09:51:56;;;;;;;;;;;;;;;;;;4984636;28;19918;-62
2022/05/14 09:54:22;;;;;;;;;;;;;;;;;;4997423;28;19925;-62
2022/05/14 09:56:47;;;;;;;;;;;;;;;;;;4993793;28;19962;-62
2022/05/14 09:59:12;;;;;;;;;;;;;;;;;;4988887;28;20008;-61
2022/05/14 10:01:38;;;;;;;;;;;;;;;;;;4993643;28;19917;-59
2022/05/14 10:04:03;;;;;;;;;;;;;;;;;;4989213;28;20371;-60
2022/05/14 10:06:28;;;;;;;;;;;;;;;;;;4992063;28;19921;-61
2022/05/14 10:08:53;;;;;;;;;;;;;;;;;;4989610;28;19924;-60
2022/05/14 10:11:18;;;;;;;;;;;;;;;;;;4979961;28;19940;-59
2022/05/14 10:13:44;;;;;;;;;;;;;;;;;;4994049;28;19960;-60
2022/05/14 10:16:09;;;;;;;;;;;;;;;;;;4985359;28;20397;-60
2022/05/14 10:18:34;;;;;;;;;;;;;;;;;;4994637;28;19945;-61
2022/05/14 10:20:59;;;;;;;;;;;;;;;;;;4990820;28;20271;-60
2022/05/14 10:28:52;;;;;;;;;;;;;;;;;;4992310;28;19921;-60
2022/05/14 10:31:18;;;;;;;;;;;;;;;;;;5008340;28;19960;-61
2022/05/14 10:33:43;;;;;;;;;;;;;;;;;;5008582;28;19922;-60
2022/05/14 10:36:08;;;;;;;;;;;;;;;;;;4995004;28;19918;-60
2022/05/14 10:38:33;;;;;;;;;;;;;;;;;;4998838;28;19987;-60
2022/05/14 10:40:58;;;;;;;;;;;;;;;;;;4995588;28;19924;-60
2022/05/14 10:43:24;;;;;;;;;;;;;;;;;;4989832;28;19917;-61
2022/05/14 10:45:49;;;;;;;;;;;;;;;;;;4997712;28;19971;-60
2022/05/14 10:48:14;;;;;;;;;;;;;;;;;;4994905;28;19928;-60
2022/05/14 10:50:39;;;;;;;;;;;;;;;;;;4996064;28;19922;-60
2022/05/14 10:53:04;;;;;;;;;;;;;;;;;;4995391;28;19918;-60
2022/05/14 10:55:30;;;;;;;;;;;;;;;;;;4989755;28;19914;-61
2022/05/14 10:57:56;;;;;;;;;;;;;;;;;;4995380;28;19929;-59
2022/05/14 11:00:24;;;;;;;;;;;;;;;;;;5006201;28;19921;-61
2022/05/14 11:02:49;;;;;;;;;;;;;;;;;;4997956;28;19931;-60
2022/05/14 11:05:14;;;;;;;;;;;;;;;;;;4989363;28;20417;-61
2022/05/14 11:07:42;;;;;;;;;;;;;;;;;;4998342;28;20023;-60
2022/05/14 11:10:07;;;;;;;;;;;;;;;;;;4996466;28;19921;-60
2022/05/14 11:12:32;;;;;;;;;;;;;;;;;;4988120;28;19924;-60
2022/05/14 11:14:58;;;;;;;;;;;;;;;;;;4991560;28;20389;-60
2022/05/14 11:17:25;;;;;;;;;;;;;;;;;;4989573;28;20386;-60
2022/05/14 11:19:50;;;;;;;;;;;;;;;;;;5005075;28;20017;-63
2022/05/14 11:22:16;;;;;;;;;;;;;;;;;;4994432;28;19918;-61
2022/05/14 11:24:41;;;;;;;;;;;;;;;;;;4980173;28;20548;-60
2022/05/14 11:27:06;;;;;;;;;;;;;;;;;;4995811;28;19940;-60
2022/05/14 11:29:31;;;;;;;;;;;;;;;;;;4989461;28;20004;-61
2022/05/14 11:31:57;;;;;;;;;;;;;;;;;;4990964;28;20413;-60
2022/05/14 11:34:22;;;;;;;;;;;;;;;;;;4994826;28;19948;-60
2022/05/14 11:36:48;;;;;;;;;;;;;;;;;;4993976;28;19925;-62
2022/05/14 11:39:13;;;;;;;;;;;;;;;;;;4997575;28;19910;-64
2022/05/14 11:41:39;;;;;;;;;;;;;;;;;;4996391;28;19920;-62
2022/05/14 11:44:06;;;;;;;;;;;;;;;;;;4990490;28;19917;-61
2022/05/14 11:46:31;;;;;;;;;;;;;;;;;;4996274;28;20535;-61
2022/05/14 11:48:56;;;;;;;;;;;;;;;;;;4988778;28;19928;-61
2022/05/14 11:51:22;;;;;;;;;;;;;;;;;;4992833;28;19971;-61
2022/05/14 11:53:47;;;;;;;;;;;;;;;;;;4991172;28;19917;-61
2022/05/14 11:56:12;;;;;;;;;;;;;;;;;;4986367;28;20028;-62
2022/05/14 11:58:38;;;;;;;;;;;;;;;;;;4991275;28;19918;-60
2022/05/14 12:01:03;;;;;;;;;;;;;;;;;;5004534;28;19913;-60
2022/05/14 12:03:28;;;;;;;;;;;;;;;;;;5005167;28;20281;-62
2022/05/14 12:05:53;;;;;;;;;;;;;;;;;;4980364;28;20382;-60
2022/05/14 12:08:19;;;;;;;;;;;;;;;;;;5003428;28;20145;-61
2022/05/14 12:10:44;;;;;;;;;;;;;;;;;;4997810;28;20283;-61
2022/05/14 12:13:09;;;;;;;;;;;;;;;;;;5002566;28;19925;-61
2022/05/14 12:15:34;;;;;;;;;;;;;;;;;;4999854;28;19917;-62
2022/05/14 12:18:00;;;;;;;;;;;;;;;;;;4988749;28;19926;-61
2022/05/14 12:20:25;;;;;;;;;;;;;;;;;;4989144;28;20042;-61
2022/05/14 12:22:51;;;;;;;;;;;;;;;;;;5014094;28;19924;-62
2022/05/14 12:25:16;;;;;;;;;;;;;;;;;;4986238;28;20433;-61
2022/05/14 12:27:41;;;;;;;;;;;;;;;;;;4990695;28;20437;-62
2022/05/14 12:30:06;;;;;;;;;;;;;;;;;;4989819;28;20392;-63
2022/05/14 12:35:15;;;;;;;;;;;;;;;;;;4991457;28;20349;-62
2022/05/14 12:37:41;;;;;;;;;;;;;;;;;;4993146;28;20417;-62
2022/05/14 12:40:06;;;;;;;;;;;;;;;;;;5003100;28;19913;-62
2022/05/14 12:42:33;;;;;;;;;;;;;;;;;;4981862;28;19918;-63
2022/05/14 12:44:59;;;;;;;;;;;;;;;;;;4972667;28;19996;-63
2022/05/14 12:47:24;;;;;;;;;;;;;;;;;;4979347;28;20462;-63
2022/05/14 12:49:49;;;;;;;;;;;;;;;;;;4973070;28;19967;-61
2022/05/14 12:52:14;;;;;;;;;;;;;;;;;;4975657;28;19929;-63
2022/05/14 12:54:40;;;;;;;;;;;;;;;;;;4988608;28;19914;-63
2022/05/14 12:57:06;;;;;;;;;;;;;;;;;;4970587;28;20008;-64
2022/05/14 12:59:31;;;;;;;;;;;;;;;;;;4979497;28;20613;-61
2022/05/14 13:01:56;;;;;;;;;;;;;;;;;;4982288;28;20521;-60
2022/05/14 13:04:21;;;;;;;;;;;;;;;;;;4985590;28;19913;-63
2022/05/14 13:06:46;;;;;;;;;;;;;;;;;;4995181;28;20000;-60
2022/05/14 13:09:12;;;;;;;;;;;;;;;;;;5002901;28;19976;-61
2022/05/14 13:11:37;;;;;;;;;;;;;;;;;;4992575;28;20286;-61
2022/05/14 13:14:02;;;;;;;;;;;;;;;;;;4979693;28;20733;-62
2022/05/14 13:16:27;;;;;;;;;;;;;;;;;;4975167;28;20334;-63
2022/05/14 13:18:53;;;;;;;;;;;;;;;;;;4981396;28;19918;-62
2022/05/14 13:21:18;;;;;;;;;;;;;;;;;;4986800;28;19925;-62
2022/05/14 13:23:43;;;;;;;;;;;;;;;;;;4998331;28;20437;-62
2022/05/14 13:26:08;;;;;;;;;;;;;;;;;;4980344;28;19929;-62
2022/05/14 13:28:34;;;;;;;;;;;;;;;;;;4986238;28;19949;-62
2022/05/14 13:30:59;;;;;;;;;;;;;;;;;;4995207;28;20329;-63
2022/05/14 13:33:24;;;;;;;;;;;;;;;;;;4987977;28;19914;-62
2022/05/14 13:38:35;;;;;;;;;;;;;;;;;;4986611;28;19961;-63
2022/05/14 13:41:00;;;;;;;;;;;;;;;;;;4989316;28;19960;-63
2022/05/14 13:43:25;;;;;;;;;;;;;;;;;;4996209;28;20382;-62
2022/05/14 13:45:50;;;;;;;;;;;;;;;;;;4994953;28;19921;-62
2022/05/14 13:48:16;;;;;;;;;;;;;;;;;;4993173;28;19929;-61
2022/05/14 13:50:41;;;;;;;;;;;;;;;;;;4995001;28;19917;-63
2022/05/14 13:53:06;;;;;;;;;;;;;;;;;;4995894;28;19925;-62
2022/05/14 13:55:31;;;;;;;;;;;;;;;;;;5006337;28;19918;-62
2022/05/14 13:57:57;;;;;;;;;;;;;;;;;;4989410;28;19922;-63
2022/05/14 14:00:22;;;;;;;;;;;;;;;;;;5007294;28;21426;-62
2022/05/14 14:02:47;;;;;;;;;;;;;;;;;;5003768;28;19921;-62
2022/05/14 14:05:12;;;;;;;;;;;;;;;;;;4992538;28;20765;-62
2022/05/14 14:07:39;;;;;;;;;;;;;;;;;;4990985;28;19928;-62
2022/05/14 14:10:04;;;;;;;;;;;;;;;;;;4992525;28;19918;-62
2022/05/14 14:12:29;;;;;;;;;;;;;;;;;;5008725;28;19918;-62
2022/05/14 14:14:55;;;;;;;;;;;;;;;;;;4993728;28;20390;-62
2022/05/14 14:17:20;;;;;;;;;;;;;;;;;;4998381;28;19917;-61
2022/05/14 14:19:45;;;;;;;;;;;;;;;;;;5001962;28;20283;-62
2022/05/14 14:22:10;;;;;;;;;;;;;;;;;;4991708;28;19918;-61
2022/05/14 14:24:38;;;;;;;;;;;;;;;;;;4996809;28;20701;-62
2022/05/14 14:27:03;;;;;;;;;;;;;;;;;;4997402;28;19921;-62
2022/05/14 14:29:28;;;;;;;;;;;;;;;;;;4995160;28;19925;-62
2022/05/14 14:31:53;;;;;;;;;;;;;;;;;;4994795;28;19917;-62
2022/05/14 14:34:19;;;;;;;;;;;;;;;;;;5007542;28;19949;-62
2022/05/14 14:36:44;;;;;;;;;;;;;;;;;;4994718;28;19927;-61
2022/05/14 14:39:09;;;;;;;;;;;;;;;;;;4998755;28;19917;-61
2022/05/14 14:41:37;;;;;;;;;;;;;;;;;;4994966;28;19918;-61
2022/05/14 14:44:03;;;;;;;;;;;;;;;;;;4995778;28;19971;-61
2022/05/14 14:46:28;;;;;;;;;;;;;;;;;;4995198;28;19917;-62
2022/05/14 14:48:54;;;;;;;;;;;;;;;;;;5000441;28;19968;-61
2022/05/14 14:51:19;;;;;;;;;;;;;;;;;;4993929;28;20582;-62
2022/05/14 14:53:44;;;;;;;;;;;;;;;;;;4995262;28;20396;-61
2022/05/14 14:56:09;;;;;;;;;;;;;;;;;;5012168;28;20389;-62
2022/05/14 14:58:34;;;;;;;;;;;;;;;;;;5001353;28;20366;-61
2022/05/14 15:01:00;;;;;;;;;;;;;;;;;;4995537;28;19930;-61
2022/05/14 15:03:25;;;;;;;;;;;;;;;;;;4996700;28;19943;-62
2022/05/14 15:05:51;;;;;;;;;;;;;;;;;;4997722;28;19921;-63
2022/05/14 15:08:16;;;;;;;;;;;;;;;;;;5001362;28;19967;-61
2022/05/14 15:10:41;;;;;;;;;;;;;;;;;;4995291;28;19917;-61
2022/05/14 15:13:06;;;;;;;;;;;;;;;;;;4995250;28;20311;-60
2022/05/14 15:15:31;;;;;;;;;;;;;;;;;;4994837;28;20362;-61
2022/05/14 15:17:57;;;;;;;;;;;;;;;;;;5000524;28;20016;-61
2022/05/14 15:20:23;;;;;;;;;;;;;;;;;;4993965;28;19920;-61
2022/05/14 15:22:48;;;;;;;;;;;;;;;;;;5008120;28;20488;-61
2022/05/14 15:25:13;;;;;;;;;;;;;;;;;;4995114;28;19918;-60
2022/05/14 15:27:38;;;;;;;;;;;;;;;;;;4999118;28;20029;-61
2022/05/14 15:30:03;;;;;;;;;;;;;;;;;;4995484;28;19960;-61
2022/05/14 15:32:29;;;;;;;;;;;;;;;;;;4997121;28;20676;-62
2022/05/14 15:34:54;;;;;;;;;;;;;;;;;;4999233;28;20350;-61
2022/05/14 15:37:19;;;;;;;;;;;;;;;;;;5000329;28;19925;-61
2022/05/14 15:39:45;;;;;;;;;;;;;;;;;;4993862;28;19914;-62
2022/05/14 15:42:10;;;;;;;;;;;;;;;;;;4995497;28;19944;-60
2022/05/14 15:44:35;;;;;;;;;;;;;;;;;;5000812;28;19917;-61
2022/05/14 15:47:01;;;;;;;;;;;;;;;;;;4995744;28;20281;-61
2022/05/14 15:49:26;;;;;;;;;;;;;;;;;;4991691;28;19925;-61
2022/05/14 15:51:52;;;;;;;;;;;;;;;;;;4997065;28;19917;-61
2022/05/14 15:54:17;;;;;;;;;;;;;;;;;;4992901;28;19929;-61
2022/05/14 15:56:43;;;;;;;;;;;;;;;;;;4999839;28;20278;-61
2022/05/14 15:59:08;;;;;;;;;;;;;;;;;;4995134;28;20356;-61
2022/05/14 16:01:33;;;;;;;;;;;;;;;;;;4993110;28;19918;-61
2022/05/14 16:03:58;;;;;;;;;;;;;;;;;;4993131;28;21316;-61
2022/05/14 16:06:23;;;;;;;;;;;;;;;;;;4992898;28;19956;-61
2022/05/14 16:08:49;;;;;;;;;;;;;;;;;;4993534;28;19925;-61
2022/05/14 16:16:42;;;;;;;;;;;;;;;;;;4993779;28;19928;-61
2022/05/14 16:19:07;;;;;;;;;;;;;;;;;;4990914;28;19918;-61
2022/05/14 16:21:32;;;;;;;;;;;;;;;;;;4993914;28;20359;-61
2022/05/14 16:23:57;;;;;;;;;;;;;;;;;;4994784;28;20405;-60
2022/05/14 16:26:23;;;;;;;;;;;;;;;;;;4992812;28;19922;-60
2022/05/14 16:28:49;;;;;;;;;;;;;;;;;;4994395;28;19922;-60
2022/05/14 16:31:15;;;;;;;;;;;;;;;;;;4987562;28;20007;-61
2022/05/14 16:33:40;;;;;;;;;;;;;;;;;;4997909;28;19922;-61
2022/05/14 16:36:06;;;;;;;;;;;;;;;;;;5001670;28;19918;-61
2022/05/14 16:38:31;;;;;;;;;;;;;;;;;;5002545;28;20004;-62
2022/05/14 16:40:57;;;;;;;;;;;;;;;;;;4993082;28;19929;-61
2022/05/14 16:43:22;;;;;;;;;;;;;;;;;;4993534;28;19925;-61
2022/05/14 16:45:47;;;;;;;;;;;;;;;;;;5008475;28;20149;-61
2022/05/14 16:48:18;;;;;;;;;;;;;;;;;;5006993;28;19928;-61
2022/05/14 16:50:43;;;;;;;;;;;;;;;;;;4993265;28;19925;-61
2022/05/14 16:53:08;;;;;;;;;;;;;;;;;;4991733;28;19917;-60
2022/05/14 16:55:34;;;;;;;;;;;;;;;;;;4993994;28;20207;-61
2022/05/14 16:57:59;;;;;;;;;;;;;;;;;;4991104;28;20589;-61
2022/05/14 17:00:27;;;;;;;;;;;;;;;;;;4993337;28;19972;-61
2022/05/14 17:02:53;;;;;;;;;;;;;;;;;;4993295;28;19918;-60
2022/05/14 17:05:19;;;;;;;;;;;;;;;;;;4994123;28;19961;-61
2022/05/14 17:07:45;;;;;;;;;;;;;;;;;;4993137;28;19926;-61